BLD weather

Boulder City Municipal Airport
Boulder City, Nevada, United States

Public forecast

Using degrees Fahrenheit for public forecast. Weather courtesy of forecast.io.

METAR (pilot weather report)

Closest report is Henderson Executive Airport, 13.4 nm (24.7 km) W. Retrieved 2019/03/25 04:56 UTC (15 minutes ago):

KHND 250456Z AUTO 17005KT 10SM CLR 14/M01 A3022 RMK AO2 SLP228 T01391006 $

TAF (pilot weather forecast)

Forecast is more than 12 hours old.

Closest forecast is Henderson Executive Airport, 13.4 nm (24.7 km) W. Retrieved 2019/03/24 00:22 UTC (1 day ago):

TAF KHND 242320Z 2500/2524 VRB05KT P6SM FEW250 FM250400 18006KT P6SM SCT250 FM251500 VRB05KT P6SM FEW250